sensor_id;sensor_type;location;lat;lon;timestamp;P1;durP1;ratioP1;P2;durP2;ratioP2
25207;SDS011;13153;52.316;21.166;2023-05-29T00:01:14;14.10;;;6.70;;
25207;SDS011;13153;52.316;21.166;2023-05-29T00:03:43;9.38;;;5.30;;
25207;SDS011;13153;52.316;21.166;2023-05-29T00:06:10;10.20;;;4.75;;
25207;SDS011;13153;52.316;21.166;2023-05-29T00:08:36;8.85;;;3.95;;
25207;SDS011;13153;52.316;21.166;2023-05-29T00:11:02;9.95;;;4.28;;
25207;SDS011;13153;52.316;21.166;2023-05-29T00:13:28;16.85;;;4.40;;
25207;SDS011;13153;52.316;21.166;2023-05-29T00:15:53;9.00;;;4.13;;
25207;SDS011;13153;52.316;21.166;2023-05-29T00:18:20;5.45;;;3.70;;
25207;SDS011;13153;52.316;21.166;2023-05-29T00:20:46;11.40;;;5.53;;
25207;SDS011;13153;52.316;21.166;2023-05-29T00:23:11;9.27;;;5.50;;
25207;SDS011;13153;52.316;21.166;2023-05-29T00:25:37;7.15;;;4.38;;
25207;SDS011;13153;52.316;21.166;2023-05-29T00:28:05;9.32;;;4.68;;
25207;SDS011;13153;52.316;21.166;2023-05-29T00:30:32;7.63;;;4.47;;
25207;SDS011;13153;52.316;21.166;2023-05-29T00:32:58;11.45;;;5.88;;
25207;SDS011;13153;52.316;21.166;2023-05-29T00:35:24;13.10;;;5.32;;
25207;SDS011;13153;52.316;21.166;2023-05-29T00:37:49;7.63;;;3.97;;
25207;SDS011;13153;52.316;21.166;2023-05-29T00:40:15;7.00;;;4.20;;
25207;SDS011;13153;52.316;21.166;2023-05-29T00:42:41;9.07;;;4.22;;
25207;SDS011;13153;52.316;21.166;2023-05-29T00:45:07;8.70;;;4.15;;
25207;SDS011;13153;52.316;21.166;2023-05-29T00:47:33;8.27;;;4.20;;
25207;SDS011;13153;52.316;21.166;2023-05-29T00:50:00;7.28;;;4.28;;
25207;SDS011;13153;52.316;21.166;2023-05-29T00:52:28;7.78;;;3.90;;
25207;SDS011;13153;52.316;21.166;2023-05-29T00:54:54;9.05;;;4.15;;
25207;SDS011;13153;52.316;21.166;2023-05-29T00:57:22;9.55;;;4.03;;
25207;SDS011;13153;52.316;21.166;2023-05-29T00:59:49;9.98;;;4.20;;
25207;SDS011;13153;52.316;21.166;2023-05-29T01:02:16;7.78;;;3.88;;
25207;SDS011;13153;52.316;21.166;2023-05-29T01:04:44;5.35;;;3.72;;
25207;SDS011;13153;52.316;21.166;2023-05-29T01:07:10;8.82;;;4.10;;
25207;SDS011;13153;52.316;21.166;2023-05-29T01:09:37;7.72;;;4.20;;
25207;SDS011;13153;52.316;21.166;2023-05-29T01:12:08;8.68;;;4.03;;
25207;SDS011;13153;52.316;21.166;2023-05-29T01:18:06;5.50;;;4.00;;
25207;SDS011;13153;52.316;21.166;2023-05-29T01:26:21;13.25;;;6.10;;
25207;SDS011;13153;52.316;21.166;2023-05-29T01:28:57;12.82;;;4.65;;
25207;SDS011;13153;52.316;21.166;2023-05-29T01:31:27;18.40;;;5.05;;
25207;SDS011;13153;52.316;21.166;2023-05-29T01:33:56;12.27;;;4.32;;
25207;SDS011;13153;52.316;21.166;2023-05-29T01:36:25;12.32;;;4.60;;
25207;SDS011;13153;52.316;21.166;2023-05-29T01:38:52;8.35;;;4.90;;
25207;SDS011;13153;52.316;21.166;2023-05-29T01:41:21;7.43;;;4.55;;
25207;SDS011;13153;52.316;21.166;2023-05-29T01:43:49;9.52;;;4.35;;
25207;SDS011;13153;52.316;21.166;2023-05-29T01:46:16;14.75;;;4.93;;
25207;SDS011;13153;52.316;21.166;2023-05-29T01:48:43;10.40;;;5.97;;
25207;SDS011;13153;52.316;21.166;2023-05-29T01:51:11;11.05;;;6.00;;
25207;SDS011;13153;52.316;21.166;2023-05-29T01:53:38;14.77;;;6.10;;
25207;SDS011;13153;52.316;21.166;2023-05-29T01:56:05;11.48;;;5.07;;
25207;SDS011;13153;52.316;21.166;2023-05-29T01:58:33;10.70;;;4.80;;
25207;SDS011;13153;52.316;21.166;2023-05-29T02:01:03;9.20;;;4.90;;
25207;SDS011;13153;52.316;21.166;2023-05-29T02:03:31;25.77;;;12.68;;
25207;SDS011;13153;52.316;21.166;2023-05-29T02:05:58;36.20;;;18.60;;
25207;SDS011;13153;52.316;21.166;2023-05-29T02:08:25;17.73;;;9.50;;
25207;SDS011;13153;52.316;21.166;2023-05-29T02:10:51;17.80;;;7.22;;
25207;SDS011;13153;52.316;21.166;2023-05-29T02:13:17;14.40;;;7.45;;
25207;SDS011;13153;52.316;21.166;2023-05-29T02:15:44;14.05;;;7.32;;
25207;SDS011;13153;52.316;21.166;2023-05-29T02:18:10;12.88;;;7.07;;
25207;SDS011;13153;52.316;21.166;2023-05-29T02:20:38;10.85;;;5.88;;
25207;SDS011;13153;52.316;21.166;2023-05-29T02:23:05;13.13;;;5.65;;
25207;SDS011;13153;52.316;21.166;2023-05-29T02:25:31;10.63;;;5.18;;
25207;SDS011;13153;52.316;21.166;2023-05-29T02:27:56;11.45;;;5.05;;
25207;SDS011;13153;52.316;21.166;2023-05-29T02:30:22;8.73;;;5.13;;
25207;SDS011;13153;52.316;21.166;2023-05-29T02:32:48;12.05;;;5.40;;
25207;SDS011;13153;52.316;21.166;2023-05-29T02:35:14;18.67;;;8.52;;
25207;SDS011;13153;52.316;21.166;2023-05-29T02:37:40;20.73;;;9.25;;
25207;SDS011;13153;52.316;21.166;2023-05-29T02:40:06;21.42;;;9.73;;
25207;SDS011;13153;52.316;21.166;2023-05-29T02:42:34;12.07;;;7.30;;
25207;SDS011;13153;52.316;21.166;2023-05-29T02:45:00;11.27;;;6.53;;
25207;SDS011;13153;52.316;21.166;2023-05-29T02:47:26;13.63;;;6.93;;
25207;SDS011;13153;52.316;21.166;2023-05-29T02:49:52;14.82;;;6.72;;
25207;SDS011;13153;52.316;21.166;2023-05-29T02:52:18;12.75;;;7.03;;
25207;SDS011;13153;52.316;21.166;2023-05-29T02:54:43;13.00;;;5.85;;
25207;SDS011;13153;52.316;21.166;2023-05-29T02:57:09;12.93;;;5.75;;
25207;SDS011;13153;52.316;21.166;2023-05-29T02:59:35;14.35;;;5.32;;
25207;SDS011;13153;52.316;21.166;2023-05-29T03:02:01;8.88;;;5.13;;
25207;SDS011;13153;52.316;21.166;2023-05-29T03:04:27;11.65;;;6.32;;
25207;SDS011;13153;52.316;21.166;2023-05-29T03:06:53;17.50;;;8.70;;
25207;SDS011;13153;52.316;21.166;2023-05-29T03:09:19;19.92;;;8.18;;
25207;SDS011;13153;52.316;21.166;2023-05-29T03:11:45;14.00;;;7.47;;
25207;SDS011;13153;52.316;21.166;2023-05-29T03:14:13;15.00;;;6.32;;
25207;SDS011;13153;52.316;21.166;2023-05-29T03:16:39;14.90;;;6.13;;
25207;SDS011;13153;52.316;21.166;2023-05-29T03:19:05;12.40;;;6.32;;
25207;SDS011;13153;52.316;21.166;2023-05-29T03:21:32;14.50;;;6.78;;
25207;SDS011;13153;52.316;21.166;2023-05-29T03:23:58;19.23;;;9.13;;
25207;SDS011;13153;52.316;21.166;2023-05-29T03:26:25;14.25;;;6.95;;
25207;SDS011;13153;52.316;21.166;2023-05-29T03:28:51;15.02;;;6.40;;
25207;SDS011;13153;52.316;21.166;2023-05-29T03:31:17;15.73;;;6.55;;
25207;SDS011;13153;52.316;21.166;2023-05-29T03:33:43;11.20;;;5.78;;
25207;SDS011;13153;52.316;21.166;2023-05-29T03:36:08;8.73;;;5.45;;
25207;SDS011;13153;52.316;21.166;2023-05-29T03:38:35;14.18;;;6.35;;
25207;SDS011;13153;52.316;21.166;2023-05-29T03:41:01;15.77;;;5.53;;
25207;SDS011;13153;52.316;21.166;2023-05-29T03:43:27;12.65;;;5.40;;
25207;SDS011;13153;52.316;21.166;2023-05-29T03:45:53;7.97;;;4.95;;
25207;SDS011;13153;52.316;21.166;2023-05-29T03:48:19;16.52;;;5.13;;
25207;SDS011;13153;52.316;21.166;2023-05-29T03:50:46;17.83;;;5.65;;
25207;SDS011;13153;52.316;21.166;2023-05-29T03:53:12;12.27;;;5.80;;
25207;SDS011;13153;52.316;21.166;2023-05-29T03:55:37;17.15;;;6.10;;
25207;SDS011;13153;52.316;21.166;2023-05-29T03:58:03;11.20;;;5.40;;
25207;SDS011;13153;52.316;21.166;2023-05-29T04:00:29;15.32;;;5.65;;
25207;SDS011;13153;52.316;21.166;2023-05-29T04:02:55;11.60;;;5.88;;
25207;SDS011;13153;52.316;21.166;2023-05-29T04:05:21;14.85;;;6.07;;
25207;SDS011;13153;52.316;21.166;2023-05-29T04:07:47;14.45;;;6.15;;
25207;SDS011;13153;52.316;21.166;2023-05-29T04:10:13;15.73;;;6.90;;
25207;SDS011;13153;52.316;21.166;2023-05-29T04:12:39;16.00;;;5.72;;
25207;SDS011;13153;52.316;21.166;2023-05-29T04:15:05;13.48;;;5.88;;
25207;SDS011;13153;52.316;21.166;2023-05-29T04:17:31;14.43;;;5.93;;
25207;SDS011;13153;52.316;21.166;2023-05-29T04:19:57;11.98;;;6.82;;
25207;SDS011;13153;52.316;21.166;2023-05-29T04:22:24;13.70;;;5.93;;
25207;SDS011;13153;52.316;21.166;2023-05-29T04:24:50;12.38;;;6.00;;
25207;SDS011;13153;52.316;21.166;2023-05-29T04:27:15;21.05;;;9.95;;
25207;SDS011;13153;52.316;21.166;2023-05-29T04:29:41;35.90;;;20.52;;
25207;SDS011;13153;52.316;21.166;2023-05-29T04:32:08;39.25;;;22.45;;
25207;SDS011;13153;52.316;21.166;2023-05-29T04:34:36;17.55;;;7.93;;
25207;SDS011;13153;52.316;21.166;2023-05-29T04:37:04;15.20;;;6.63;;
25207;SDS011;13153;52.316;21.166;2023-05-29T04:39:31;15.88;;;7.18;;
25207;SDS011;13153;52.316;21.166;2023-05-29T04:41:57;20.27;;;10.30;;
25207;SDS011;13153;52.316;21.166;2023-05-29T04:44:26;17.60;;;7.97;;
25207;SDS011;13153;52.316;21.166;2023-05-29T04:46:54;12.18;;;5.43;;
25207;SDS011;13153;52.316;21.166;2023-05-29T04:49:19;14.18;;;5.78;;
25207;SDS011;13153;52.316;21.166;2023-05-29T04:51:46;11.18;;;5.30;;
25207;SDS011;13153;52.316;21.166;2023-05-29T04:54:12;12.40;;;5.10;;
25207;SDS011;13153;52.316;21.166;2023-05-29T04:56:38;12.15;;;5.50;;
25207;SDS011;13153;52.316;21.166;2023-05-29T04:59:07;10.02;;;5.55;;
25207;SDS011;13153;52.316;21.166;2023-05-29T05:01:33;13.18;;;4.82;;
25207;SDS011;13153;52.316;21.166;2023-05-29T05:04:00;10.98;;;5.28;;
25207;SDS011;13153;52.316;21.166;2023-05-29T05:06:26;7.95;;;4.55;;
25207;SDS011;13153;52.316;21.166;2023-05-29T05:08:52;13.98;;;6.05;;
25207;SDS011;13153;52.316;21.166;2023-05-29T05:11:18;11.43;;;5.95;;
25207;SDS011;13153;52.316;21.166;2023-05-29T05:13:45;16.63;;;6.95;;
25207;SDS011;13153;52.316;21.166;2023-05-29T05:16:11;16.55;;;5.38;;
25207;SDS011;13153;52.316;21.166;2023-05-29T05:18:38;14.55;;;6.75;;
25207;SDS011;13153;52.316;21.166;2023-05-29T05:21:04;13.98;;;5.38;;
25207;SDS011;13153;52.316;21.166;2023-05-29T05:23:31;20.92;;;5.13;;
25207;SDS011;13153;52.316;21.166;2023-05-29T05:25:57;14.93;;;4.55;;
25207;SDS011;13153;52.316;21.166;2023-05-29T05:28:23;16.77;;;4.85;;
25207;SDS011;13153;52.316;21.166;2023-05-29T05:30:49;26.80;;;6.50;;
25207;SDS011;13153;52.316;21.166;2023-05-29T05:33:16;14.13;;;4.90;;
25207;SDS011;13153;52.316;21.166;2023-05-29T05:35:42;14.45;;;4.53;;
25207;SDS011;13153;52.316;21.166;2023-05-29T05:38:07;16.92;;;4.07;;
25207;SDS011;13153;52.316;21.166;2023-05-29T05:40:34;11.38;;;4.50;;
25207;SDS011;13153;52.316;21.166;2023-05-29T05:42:59;13.65;;;4.28;;
25207;SDS011;13153;52.316;21.166;2023-05-29T05:45:26;11.63;;;4.30;;
25207;SDS011;13153;52.316;21.166;2023-05-29T05:47:52;12.50;;;4.10;;
25207;SDS011;13153;52.316;21.166;2023-05-29T05:50:17;10.65;;;3.72;;
25207;SDS011;13153;52.316;21.166;2023-05-29T05:52:43;9.88;;;3.55;;
25207;SDS011;13153;52.316;21.166;2023-05-29T05:55:10;9.13;;;3.55;;
25207;SDS011;13153;52.316;21.166;2023-05-29T05:57:36;11.93;;;3.15;;
25207;SDS011;13153;52.316;21.166;2023-05-29T06:00:02;6.30;;;3.20;;
25207;SDS011;13153;52.316;21.166;2023-05-29T06:02:38;6.95;;;3.28;;
25207;SDS011;13153;52.316;21.166;2023-05-29T06:05:08;8.48;;;2.88;;
25207;SDS011;13153;52.316;21.166;2023-05-29T06:07:34;15.88;;;3.50;;
25207;SDS011;13153;52.316;21.166;2023-05-29T06:10:01;16.23;;;3.20;;
25207;SDS011;13153;52.316;21.166;2023-05-29T06:12:28;11.60;;;3.25;;
25207;SDS011;13153;52.316;21.166;2023-05-29T06:14:55;10.77;;;3.00;;
25207;SDS011;13153;52.316;21.166;2023-05-29T06:17:21;13.35;;;3.22;;
25207;SDS011;13153;52.316;21.166;2023-05-29T06:19:48;10.40;;;3.05;;
25207;SDS011;13153;52.316;21.166;2023-05-29T06:22:14;14.60;;;3.65;;
25207;SDS011;13153;52.316;21.166;2023-05-29T06:24:41;11.38;;;2.88;;
25207;SDS011;13153;52.316;21.166;2023-05-29T06:27:07;11.27;;;3.00;;
25207;SDS011;13153;52.316;21.166;2023-05-29T06:29:33;11.85;;;3.05;;
25207;SDS011;13153;52.316;21.166;2023-05-29T06:31:59;14.38;;;3.25;;
25207;SDS011;13153;52.316;21.166;2023-05-29T06:34:25;9.15;;;3.35;;
25207;SDS011;13153;52.316;21.166;2023-05-29T06:36:51;8.13;;;2.78;;
25207;SDS011;13153;52.316;21.166;2023-05-29T06:39:16;13.18;;;2.88;;
25207;SDS011;13153;52.316;21.166;2023-05-29T06:41:43;7.03;;;2.60;;
25207;SDS011;13153;52.316;21.166;2023-05-29T06:44:09;7.88;;;2.50;;
25207;SDS011;13153;52.316;21.166;2023-05-29T06:46:35;12.10;;;2.80;;
25207;SDS011;13153;52.316;21.166;2023-05-29T06:49:00;10.43;;;2.47;;
25207;SDS011;13153;52.316;21.166;2023-05-29T06:51:26;9.52;;;2.45;;
25207;SDS011;13153;52.316;21.166;2023-05-29T06:53:52;9.13;;;2.92;;
25207;SDS011;13153;52.316;21.166;2023-05-29T06:56:18;8.88;;;2.58;;
25207;SDS011;13153;52.316;21.166;2023-05-29T06:58:43;7.07;;;2.42;;
25207;SDS011;13153;52.316;21.166;2023-05-29T07:01:10;6.07;;;2.30;;
25207;SDS011;13153;52.316;21.166;2023-05-29T07:03:36;6.20;;;2.42;;
25207;SDS011;13153;52.316;21.166;2023-05-29T07:06:02;11.05;;;2.00;;
25207;SDS011;13153;52.316;21.166;2023-05-29T07:08:29;11.02;;;2.05;;
25207;SDS011;13153;52.316;21.166;2023-05-29T07:10:55;9.70;;;1.60;;
25207;SDS011;13153;52.316;21.166;2023-05-29T07:13:21;2.60;;;1.60;;
25207;SDS011;13153;52.316;21.166;2023-05-29T07:15:48;3.88;;;1.42;;
25207;SDS011;13153;52.316;21.166;2023-05-29T07:18:14;3.75;;;1.50;;
25207;SDS011;13153;52.316;21.166;2023-05-29T07:20:39;6.78;;;5.15;;
25207;SDS011;13153;52.316;21.166;2023-05-29T07:23:05;4.70;;;2.10;;
25207;SDS011;13153;52.316;21.166;2023-05-29T07:25:31;7.75;;;2.47;;
25207;SDS011;13153;52.316;21.166;2023-05-29T07:27:57;6.95;;;2.10;;
25207;SDS011;13153;52.316;21.166;2023-05-29T07:30:23;11.65;;;2.00;;
25207;SDS011;13153;52.316;21.166;2023-05-29T07:32:49;10.80;;;2.00;;
25207;SDS011;13153;52.316;21.166;2023-05-29T07:35:15;7.05;;;1.80;;
25207;SDS011;13153;52.316;21.166;2023-05-29T07:37:40;12.48;;;2.00;;
25207;SDS011;13153;52.316;21.166;2023-05-29T07:40:06;4.45;;;1.80;;
25207;SDS011;13153;52.316;21.166;2023-05-29T07:42:33;9.02;;;1.80;;
25207;SDS011;13153;52.316;21.166;2023-05-29T07:44:59;5.15;;;1.70;;
25207;SDS011;13153;52.316;21.166;2023-05-29T07:47:25;4.97;;;1.60;;
25207;SDS011;13153;52.316;21.166;2023-05-29T07:49:51;5.90;;;1.88;;
25207;SDS011;13153;52.316;21.166;2023-05-29T07:52:17;8.35;;;2.28;;
25207;SDS011;13153;52.316;21.166;2023-05-29T07:54:44;8.70;;;1.83;;
25207;SDS011;13153;52.316;21.166;2023-05-29T07:57:10;9.48;;;1.75;;
25207;SDS011;13153;52.316;21.166;2023-05-29T07:59:36;7.35;;;1.98;;
25207;SDS011;13153;52.316;21.166;2023-05-29T08:02:06;7.85;;;1.88;;
25207;SDS011;13153;52.316;21.166;2023-05-29T08:04:32;5.28;;;1.83;;
25207;SDS011;13153;52.316;21.166;2023-05-29T08:06:59;4.70;;;1.80;;
25207;SDS011;13153;52.316;21.166;2023-05-29T08:09:26;8.65;;;2.47;;
25207;SDS011;13153;52.316;21.166;2023-05-29T08:11:52;5.40;;;2.10;;
25207;SDS011;13153;52.316;21.166;2023-05-29T08:14:18;7.85;;;1.95;;
25207;SDS011;13153;52.316;21.166;2023-05-29T08:16:43;3.33;;;1.77;;
25207;SDS011;13153;52.316;21.166;2023-05-29T08:19:09;6.20;;;1.70;;
25207;SDS011;13153;52.316;21.166;2023-05-29T08:21:35;6.45;;;1.75;;
25207;SDS011;13153;52.316;21.166;2023-05-29T08:24:03;6.20;;;1.85;;
25207;SDS011;13153;52.316;21.166;2023-05-29T08:26:32;6.28;;;1.70;;
25207;SDS011;13153;52.316;21.166;2023-05-29T08:28:58;6.35;;;1.95;;
25207;SDS011;13153;52.316;21.166;2023-05-29T08:31:24;4.43;;;2.00;;
25207;SDS011;13153;52.316;21.166;2023-05-29T08:33:50;4.30;;;1.88;;
25207;SDS011;13153;52.316;21.166;2023-05-29T08:36:17;6.20;;;1.88;;
25207;SDS011;13153;52.316;21.166;2023-05-29T08:38:43;7.38;;;2.00;;
25207;SDS011;13153;52.316;21.166;2023-05-29T08:41:08;7.45;;;1.92;;
25207;SDS011;13153;52.316;21.166;2023-05-29T08:43:58;4.90;;;1.77;;
25207;SDS011;13153;52.316;21.166;2023-05-29T08:46:28;8.00;;;2.30;;
25207;SDS011;13153;52.316;21.166;2023-05-29T08:48:56;7.10;;;2.20;;
25207;SDS011;13153;52.316;21.166;2023-05-29T08:51:27;5.70;;;2.10;;
25207;SDS011;13153;52.316;21.166;2023-05-29T08:54:03;4.32;;;2.00;;
25207;SDS011;13153;52.316;21.166;2023-05-29T08:56:29;12.02;;;2.15;;
25207;SDS011;13153;52.316;21.166;2023-05-29T08:58:56;6.95;;;2.10;;
25207;SDS011;13153;52.316;21.166;2023-05-29T09:01:23;7.10;;;2.03;;
25207;SDS011;13153;52.316;21.166;2023-05-29T09:03:50;7.97;;;2.13;;
25207;SDS011;13153;52.316;21.166;2023-05-29T09:06:16;8.25;;;1.90;;
25207;SDS011;13153;52.316;21.166;2023-05-29T09:08:43;10.35;;;2.00;;
25207;SDS011;13153;52.316;21.166;2023-05-29T09:11:09;4.85;;;2.28;;
25207;SDS011;13153;52.316;21.166;2023-05-29T09:13:35;9.90;;;2.08;;
25207;SDS011;13153;52.316;21.166;2023-05-29T09:16:01;4.13;;;2.00;;
25207;SDS011;13153;52.316;21.166;2023-05-29T09:18:30;4.25;;;1.80;;
25207;SDS011;13153;52.316;21.166;2023-05-29T09:20:57;6.15;;;1.90;;
25207;SDS011;13153;52.316;21.166;2023-05-29T09:23:25;8.40;;;2.28;;
25207;SDS011;13153;52.316;21.166;2023-05-29T09:25:52;6.93;;;2.28;;
25207;SDS011;13153;52.316;21.166;2023-05-29T09:28:20;9.88;;;2.28;;
25207;SDS011;13153;52.316;21.166;2023-05-29T09:30:48;4.60;;;2.00;;
25207;SDS011;13153;52.316;21.166;2023-05-29T09:33:15;2.55;;;1.73;;
25207;SDS011;13153;52.316;21.166;2023-05-29T09:35:45;8.05;;;2.10;;
25207;SDS011;13153;52.316;21.166;2023-05-29T09:38:13;4.70;;;2.13;;
25207;SDS011;13153;52.316;21.166;2023-05-29T09:40:43;6.53;;;2.20;;
25207;SDS011;13153;52.316;21.166;2023-05-29T09:43:13;5.15;;;1.77;;
25207;SDS011;13153;52.316;21.166;2023-05-29T09:45:43;4.55;;;1.83;;
25207;SDS011;13153;52.316;21.166;2023-05-29T09:48:15;7.63;;;2.10;;
25207;SDS011;13153;52.316;21.166;2023-05-29T09:50:47;6.38;;;1.98;;
25207;SDS011;13153;52.316;21.166;2023-05-29T09:53:19;7.15;;;2.28;;
25207;SDS011;13153;52.316;21.166;2023-05-29T09:55:50;5.60;;;2.05;;
25207;SDS011;13153;52.316;21.166;2023-05-29T09:58:18;8.25;;;2.78;;
25207;SDS011;13153;52.316;21.166;2023-05-29T10:00:44;7.22;;;2.60;;
25207;SDS011;13153;52.316;21.166;2023-05-29T10:03:12;4.00;;;2.30;;
25207;SDS011;13153;52.316;21.166;2023-05-29T10:05:42;7.03;;;2.05;;
25207;SDS011;13153;52.316;21.166;2023-05-29T10:08:12;5.55;;;2.03;;
25207;SDS011;13153;52.316;21.166;2023-05-29T10:10:44;6.10;;;2.10;;
25207;SDS011;13153;52.316;21.166;2023-05-29T10:13:16;5.88;;;1.70;;
25207;SDS011;13153;52.316;21.166;2023-05-29T10:15:44;5.28;;;2.25;;
25207;SDS011;13153;52.316;21.166;2023-05-29T10:18:14;8.52;;;2.15;;
25207;SDS011;13153;52.316;21.166;2023-05-29T10:20:53;7.90;;;2.10;;
25207;SDS011;13153;52.316;21.166;2023-05-29T10:23:23;6.90;;;2.20;;
25207;SDS011;13153;52.316;21.166;2023-05-29T10:25:52;9.38;;;2.30;;
25207;SDS011;13153;52.316;21.166;2023-05-29T10:28:24;9.20;;;2.22;;
25207;SDS011;13153;52.316;21.166;2023-05-29T10:36:12;4.78;;;2.33;;
25207;SDS011;13153;52.316;21.166;2023-05-29T10:38:46;4.05;;;2.08;;
25207;SDS011;13153;52.316;21.166;2023-05-29T10:43:53;6.85;;;2.72;;
25207;SDS011;13153;52.316;21.166;2023-05-29T10:46:20;4.22;;;2.03;;
25207;SDS011;13153;52.316;21.166;2023-05-29T10:48:48;7.28;;;2.08;;
25207;SDS011;13153;52.316;21.166;2023-05-29T10:51:27;11.23;;;4.00;;
25207;SDS011;13153;52.316;21.166;2023-05-29T10:53:54;7.32;;;3.22;;
25207;SDS011;13153;52.316;21.166;2023-05-29T10:56:23;8.00;;;2.50;;
25207;SDS011;13153;52.316;21.166;2023-05-29T11:01:25;4.57;;;1.95;;
25207;SDS011;13153;52.316;21.166;2023-05-29T11:06:42;9.77;;;3.90;;
25207;SDS011;13153;52.316;21.166;2023-05-29T11:12:11;4.45;;;2.08;;
25207;SDS011;13153;52.316;21.166;2023-05-29T11:14:59;4.15;;;1.95;;
25207;SDS011;13153;52.316;21.166;2023-05-29T11:20:03;3.85;;;2.20;;
25207;SDS011;13153;52.316;21.166;2023-05-29T11:27:52;7.80;;;2.08;;
25207;SDS011;13153;52.316;21.166;2023-05-29T11:30:18;6.25;;;2.15;;
25207;SDS011;13153;52.316;21.166;2023-05-29T11:32:46;6.43;;;2.20;;
25207;SDS011;13153;52.316;21.166;2023-05-29T11:35:13;5.10;;;2.15;;
25207;SDS011;13153;52.316;21.166;2023-05-29T11:37:40;8.75;;;2.50;;
25207;SDS011;13153;52.316;21.166;2023-05-29T11:40:08;6.18;;;2.33;;
25207;SDS011;13153;52.316;21.166;2023-05-29T11:42:35;11.32;;;2.25;;
25207;SDS011;13153;52.316;21.166;2023-05-29T11:50:18;10.15;;;2.72;;
25207;SDS011;13153;52.316;21.166;2023-05-29T11:52:49;6.47;;;2.60;;
25207;SDS011;13153;52.316;21.166;2023-05-29T11:55:17;9.63;;;2.50;;
25207;SDS011;13153;52.316;21.166;2023-05-29T11:57:47;9.75;;;2.45;;
25207;SDS011;13153;52.316;21.166;2023-05-29T12:00:15;9.40;;;3.47;;
25207;SDS011;13153;52.316;21.166;2023-05-29T12:02:42;11.57;;;3.65;;
25207;SDS011;13153;52.316;21.166;2023-05-29T12:05:09;11.55;;;3.03;;
25207;SDS011;13153;52.316;21.166;2023-05-29T12:07:37;7.15;;;2.33;;
25207;SDS011;13153;52.316;21.166;2023-05-29T12:10:12;7.65;;;2.33;;
25207;SDS011;13153;52.316;21.166;2023-05-29T12:12:40;5.25;;;2.30;;
25207;SDS011;13153;52.316;21.166;2023-05-29T12:15:07;9.85;;;2.33;;
25207;SDS011;13153;52.316;21.166;2023-05-29T12:17:34;8.25;;;2.03;;
25207;SDS011;13153;52.316;21.166;2023-05-29T12:20:03;7.50;;;2.17;;
25207;SDS011;13153;52.316;21.166;2023-05-29T12:22:34;8.25;;;2.30;;
25207;SDS011;13153;52.316;21.166;2023-05-29T12:25:12;5.10;;;2.40;;
25207;SDS011;13153;52.316;21.166;2023-05-29T12:27:44;6.05;;;2.33;;
25207;SDS011;13153;52.316;21.166;2023-05-29T12:30:13;3.25;;;2.00;;
25207;SDS011;13153;52.316;21.166;2023-05-29T12:32:48;7.30;;;2.47;;
25207;SDS011;13153;52.316;21.166;2023-05-29T12:35:23;9.00;;;2.72;;
25207;SDS011;13153;52.316;21.166;2023-05-29T12:37:56;4.93;;;2.13;;
25207;SDS011;13153;52.316;21.166;2023-05-29T12:40:26;5.78;;;2.13;;
25207;SDS011;13153;52.316;21.166;2023-05-29T12:43:00;9.40;;;2.22;;
25207;SDS011;13153;52.316;21.166;2023-05-29T12:45:29;5.28;;;2.47;;
25207;SDS011;13153;52.316;21.166;2023-05-29T12:47:58;11.77;;;2.80;;
25207;SDS011;13153;52.316;21.166;2023-05-29T12:50:31;8.27;;;2.42;;
25207;SDS011;13153;52.316;21.166;2023-05-29T12:52:58;5.70;;;2.60;;
25207;SDS011;13153;52.316;21.166;2023-05-29T12:55:33;9.07;;;2.60;;
25207;SDS011;13153;52.316;21.166;2023-05-29T12:58:05;4.85;;;2.47;;
25207;SDS011;13153;52.316;21.166;2023-05-29T13:00:34;5.32;;;2.35;;
25207;SDS011;13153;52.316;21.166;2023-05-29T13:03:01;6.32;;;2.35;;
25207;SDS011;13153;52.316;21.166;2023-05-29T13:05:28;5.50;;;2.15;;
25207;SDS011;13153;52.316;21.166;2023-05-29T13:07:53;9.98;;;2.83;;
25207;SDS011;13153;52.316;21.166;2023-05-29T13:10:20;8.70;;;2.80;;
25207;SDS011;13153;52.316;21.166;2023-05-29T13:12:47;6.78;;;2.22;;
25207;SDS011;13153;52.316;21.166;2023-05-29T13:15:19;6.90;;;2.42;;
25207;SDS011;13153;52.316;21.166;2023-05-29T13:17:47;7.40;;;2.80;;
25207;SDS011;13153;52.316;21.166;2023-05-29T13:20:13;11.50;;;2.63;;
25207;SDS011;13153;52.316;21.166;2023-05-29T13:22:40;4.85;;;2.72;;
25207;SDS011;13153;52.316;21.166;2023-05-29T13:25:08;14.52;;;3.65;;
25207;SDS011;13153;52.316;21.166;2023-05-29T13:27:38;20.20;;;4.07;;
25207;SDS011;13153;52.316;21.166;2023-05-29T13:30:07;7.22;;;2.78;;
25207;SDS011;13153;52.316;21.166;2023-05-29T13:32:35;12.88;;;3.47;;
25207;SDS011;13153;52.316;21.166;2023-05-29T13:35:01;16.02;;;3.35;;
25207;SDS011;13153;52.316;21.166;2023-05-29T13:37:28;6.43;;;2.10;;
25207;SDS011;13153;52.316;21.166;2023-05-29T13:39:54;7.32;;;2.22;;
25207;SDS011;13153;52.316;21.166;2023-05-29T13:42:20;4.57;;;2.22;;
25207;SDS011;13153;52.316;21.166;2023-05-29T13:44:47;5.22;;;2.55;;
25207;SDS011;13153;52.316;21.166;2023-05-29T13:47:14;11.10;;;2.55;;
25207;SDS011;13153;52.316;21.166;2023-05-29T13:49:40;7.20;;;2.40;;
25207;SDS011;13153;52.316;21.166;2023-05-29T13:52:06;6.05;;;2.22;;
25207;SDS011;13153;52.316;21.166;2023-05-29T13:54:32;5.72;;;2.58;;
25207;SDS011;13153;52.316;21.166;2023-05-29T13:57:04;6.43;;;2.55;;
25207;SDS011;13153;52.316;21.166;2023-05-29T13:59:34;6.85;;;2.38;;
25207;SDS011;13153;52.316;21.166;2023-05-29T14:02:01;4.25;;;2.20;;
25207;SDS011;13153;52.316;21.166;2023-05-29T14:04:29;10.40;;;2.20;;
25207;SDS011;13153;52.316;21.166;2023-05-29T14:06:55;3.90;;;2.40;;
25207;SDS011;13153;52.316;21.166;2023-05-29T14:09:22;8.50;;;2.30;;
25207;SDS011;13153;52.316;21.166;2023-05-29T14:11:58;5.07;;;2.40;;
25207;SDS011;13153;52.316;21.166;2023-05-29T14:14:24;2.85;;;2.20;;
25207;SDS011;13153;52.316;21.166;2023-05-29T14:16:51;5.43;;;2.72;;
25207;SDS011;13153;52.316;21.166;2023-05-29T14:19:18;11.05;;;2.97;;
25207;SDS011;13153;52.316;21.166;2023-05-29T14:21:44;4.10;;;2.30;;
25207;SDS011;13153;52.316;21.166;2023-05-29T14:24:10;6.05;;;2.30;;
25207;SDS011;13153;52.316;21.166;2023-05-29T14:26:38;3.95;;;2.33;;
25207;SDS011;13153;52.316;21.166;2023-05-29T14:29:03;4.45;;;2.28;;
25207;SDS011;13153;52.316;21.166;2023-05-29T14:31:29;3.90;;;2.13;;
25207;SDS011;13153;52.316;21.166;2023-05-29T14:33:55;3.42;;;2.50;;
25207;SDS011;13153;52.316;21.166;2023-05-29T14:36:22;7.63;;;2.72;;
25207;SDS011;13153;52.316;21.166;2023-05-29T14:38:47;6.88;;;2.40;;
25207;SDS011;13153;52.316;21.166;2023-05-29T14:41:14;4.18;;;2.22;;
25207;SDS011;13153;52.316;21.166;2023-05-29T14:43:43;5.75;;;3.30;;
25207;SDS011;13153;52.316;21.166;2023-05-29T14:46:09;10.63;;;5.28;;
25207;SDS011;13153;52.316;21.166;2023-05-29T14:48:35;7.30;;;2.50;;
25207;SDS011;13153;52.316;21.166;2023-05-29T14:51:01;4.50;;;2.50;;
25207;SDS011;13153;52.316;21.166;2023-05-29T14:53:27;6.85;;;2.45;;
25207;SDS011;13153;52.316;21.166;2023-05-29T14:55:53;4.82;;;2.30;;
25207;SDS011;13153;52.316;21.166;2023-05-29T14:58:21;4.75;;;2.17;;
25207;SDS011;13153;52.316;21.166;2023-05-29T15:00:47;7.15;;;2.50;;
25207;SDS011;13153;52.316;21.166;2023-05-29T15:03:12;4.03;;;2.50;;
25207;SDS011;13153;52.316;21.166;2023-05-29T15:05:38;5.25;;;2.38;;
25207;SDS011;13153;52.316;21.166;2023-05-29T15:08:04;5.07;;;2.50;;